sensor_id;sensor_type;location;lat;lon;timestamp;P1;durP1;ratioP1;P2;durP2;ratioP2
16820;SDS011;8527;49.740;6.604;2022-08-21T00:02:13;16.00;;;4.60;;
16820;SDS011;8527;49.740;6.604;2022-08-21T00:07:16;11.95;;;4.35;;
16820;SDS011;8527;49.740;6.604;2022-08-21T00:12:19;8.80;;;4.45;;
16820;SDS011;8527;49.740;6.604;2022-08-21T00:17:18;12.98;;;4.35;;
16820;SDS011;8527;49.740;6.604;2022-08-21T00:22:21;12.10;;;4.43;;
16820;SDS011;8527;49.740;6.604;2022-08-21T00:27:19;13.90;;;3.85;;
16820;SDS011;8527;49.740;6.604;2022-08-21T00:32:20;10.23;;;4.10;;
16820;SDS011;8527;49.740;6.604;2022-08-21T00:37:21;11.82;;;3.95;;
16820;SDS011;8527;49.740;6.604;2022-08-21T00:42:22;9.57;;;3.70;;
16820;SDS011;8527;49.740;6.604;2022-08-21T00:47:20;10.98;;;4.18;;
16820;SDS011;8527;49.740;6.604;2022-08-21T00:52:19;11.63;;;3.78;;
16820;SDS011;8527;49.740;6.604;2022-08-21T00:57:32;10.80;;;4.28;;
16820;SDS011;8527;49.740;6.604;2022-08-21T01:02:34;10.48;;;3.65;;
16820;SDS011;8527;49.740;6.604;2022-08-21T01:07:35;10.05;;;3.88;;
16820;SDS011;8527;49.740;6.604;2022-08-21T01:12:37;12.52;;;4.32;;
16820;SDS011;8527;49.740;6.604;2022-08-21T01:17:37;9.63;;;4.15;;
16820;SDS011;8527;49.740;6.604;2022-08-21T01:22:44;10.93;;;4.20;;
16820;SDS011;8527;49.740;6.604;2022-08-21T01:27:43;9.45;;;4.60;;
16820;SDS011;8527;49.740;6.604;2022-08-21T01:32:44;12.30;;;4.07;;
16820;SDS011;8527;49.740;6.604;2022-08-21T01:37:46;8.15;;;4.03;;
16820;SDS011;8527;49.740;6.604;2022-08-21T01:42:46;8.50;;;4.07;;
16820;SDS011;8527;49.740;6.604;2022-08-21T01:47:44;10.35;;;4.35;;
16820;SDS011;8527;49.740;6.604;2022-08-21T01:52:46;9.95;;;4.15;;
16820;SDS011;8527;49.740;6.604;2022-08-21T01:57:48;12.13;;;4.68;;
16820;SDS011;8527;49.740;6.604;2022-08-21T02:02:46;12.55;;;3.97;;
16820;SDS011;8527;49.740;6.604;2022-08-21T02:07:50;15.38;;;4.40;;
16820;SDS011;8527;49.740;6.604;2022-08-21T02:12:53;9.70;;;3.85;;
16820;SDS011;8527;49.740;6.604;2022-08-21T02:17:52;13.55;;;4.20;;
16820;SDS011;8527;49.740;6.604;2022-08-21T02:22:55;11.38;;;4.57;;
16820;SDS011;8527;49.740;6.604;2022-08-21T02:27:55;11.63;;;4.40;;
16820;SDS011;8527;49.740;6.604;2022-08-21T02:38:04;15.73;;;4.70;;
16820;SDS011;8527;49.740;6.604;2022-08-21T02:43:05;16.55;;;4.63;;
16820;SDS011;8527;49.740;6.604;2022-08-21T02:48:05;11.75;;;4.60;;
16820;SDS011;8527;49.740;6.604;2022-08-21T02:53:10;10.52;;;4.03;;
16820;SDS011;8527;49.740;6.604;2022-08-21T02:58:13;12.88;;;4.53;;
16820;SDS011;8527;49.740;6.604;2022-08-21T03:03:15;12.52;;;4.85;;
16820;SDS011;8527;49.740;6.604;2022-08-21T03:08:17;13.50;;;4.90;;
16820;SDS011;8527;49.740;6.604;2022-08-21T03:13:18;10.93;;;4.72;;
16820;SDS011;8527;49.740;6.604;2022-08-21T03:18:27;13.88;;;4.88;;
16820;SDS011;8527;49.740;6.604;2022-08-21T03:23:32;12.25;;;4.72;;
16820;SDS011;8527;49.740;6.604;2022-08-21T03:28:34;11.55;;;4.78;;
16820;SDS011;8527;49.740;6.604;2022-08-21T03:33:33;8.82;;;4.85;;
16820;SDS011;8527;49.740;6.604;2022-08-21T03:38:41;12.07;;;4.28;;
16820;SDS011;8527;49.740;6.604;2022-08-21T03:43:47;13.20;;;4.70;;
16820;SDS011;8527;49.740;6.604;2022-08-21T03:48:46;10.43;;;4.80;;
16820;SDS011;8527;49.740;6.604;2022-08-21T03:53:47;7.80;;;4.50;;
16820;SDS011;8527;49.740;6.604;2022-08-21T03:58:45;10.25;;;4.47;;
16820;SDS011;8527;49.740;6.604;2022-08-21T04:03:44;10.13;;;4.78;;
16820;SDS011;8527;49.740;6.604;2022-08-21T04:08:42;14.40;;;4.75;;
16820;SDS011;8527;49.740;6.604;2022-08-21T04:13:46;11.57;;;4.38;;
16820;SDS011;8527;49.740;6.604;2022-08-21T04:18:45;13.20;;;4.50;;
16820;SDS011;8527;49.740;6.604;2022-08-21T04:23:45;10.90;;;4.78;;
16820;SDS011;8527;49.740;6.604;2022-08-21T04:28:46;9.23;;;4.38;;
16820;SDS011;8527;49.740;6.604;2022-08-21T04:33:47;11.45;;;4.93;;
16820;SDS011;8527;49.740;6.604;2022-08-21T04:38:51;14.38;;;4.68;;
16820;SDS011;8527;49.740;6.604;2022-08-21T04:43:52;12.80;;;4.80;;
16820;SDS011;8527;49.740;6.604;2022-08-21T04:48:50;9.93;;;4.38;;
16820;SDS011;8527;49.740;6.604;2022-08-21T04:53:52;9.95;;;4.50;;
16820;SDS011;8527;49.740;6.604;2022-08-21T04:58:54;9.43;;;4.70;;
16820;SDS011;8527;49.740;6.604;2022-08-21T05:03:59;10.45;;;4.60;;
16820;SDS011;8527;49.740;6.604;2022-08-21T05:09:02;13.85;;;4.80;;
16820;SDS011;8527;49.740;6.604;2022-08-21T05:14:05;10.38;;;4.70;;
16820;SDS011;8527;49.740;6.604;2022-08-21T05:19:04;12.82;;;5.05;;
16820;SDS011;8527;49.740;6.604;2022-08-21T05:24:08;10.93;;;4.40;;
16820;SDS011;8527;49.740;6.604;2022-08-21T05:29:07;15.85;;;5.15;;
16820;SDS011;8527;49.740;6.604;2022-08-21T05:34:06;11.27;;;4.80;;
16820;SDS011;8527;49.740;6.604;2022-08-21T05:39:04;11.38;;;5.22;;
16820;SDS011;8527;49.740;6.604;2022-08-21T05:44:05;11.60;;;4.63;;
16820;SDS011;8527;49.740;6.604;2022-08-21T05:49:06;10.57;;;4.75;;
16820;SDS011;8527;49.740;6.604;2022-08-21T05:54:13;12.25;;;4.95;;
16820;SDS011;8527;49.740;6.604;2022-08-21T05:59:14;11.10;;;4.90;;
16820;SDS011;8527;49.740;6.604;2022-08-21T06:04:15;8.27;;;4.60;;
16820;SDS011;8527;49.740;6.604;2022-08-21T06:09:17;10.98;;;4.82;;
16820;SDS011;8527;49.740;6.604;2022-08-21T06:14:20;13.13;;;5.07;;
16820;SDS011;8527;49.740;6.604;2022-08-21T06:19:23;13.10;;;4.82;;
16820;SDS011;8527;49.740;6.604;2022-08-21T06:24:24;11.77;;;4.90;;
16820;SDS011;8527;49.740;6.604;2022-08-21T06:29:26;14.18;;;5.50;;
16820;SDS011;8527;49.740;6.604;2022-08-21T06:34:24;13.18;;;5.63;;
16820;SDS011;8527;49.740;6.604;2022-08-21T06:39:23;12.57;;;5.40;;
16820;SDS011;8527;49.740;6.604;2022-08-21T06:44:21;11.45;;;5.57;;
16820;SDS011;8527;49.740;6.604;2022-08-21T06:49:22;13.98;;;5.78;;
16820;SDS011;8527;49.740;6.604;2022-08-21T06:54:23;13.57;;;5.47;;
16820;SDS011;8527;49.740;6.604;2022-08-21T06:59:25;10.43;;;5.13;;
16820;SDS011;8527;49.740;6.604;2022-08-21T07:04:26;12.48;;;5.45;;
16820;SDS011;8527;49.740;6.604;2022-08-21T07:09:25;14.88;;;5.03;;
16820;SDS011;8527;49.740;6.604;2022-08-21T07:14:29;13.05;;;5.47;;
16820;SDS011;8527;49.740;6.604;2022-08-21T07:19:30;10.70;;;5.13;;
16820;SDS011;8527;49.740;6.604;2022-08-21T07:24:31;10.20;;;4.88;;
16820;SDS011;8527;49.740;6.604;2022-08-21T07:29:29;13.25;;;5.38;;
16820;SDS011;8527;49.740;6.604;2022-08-21T07:34:30;11.57;;;5.45;;
16820;SDS011;8527;49.740;6.604;2022-08-21T07:39:31;17.40;;;5.30;;
16820;SDS011;8527;49.740;6.604;2022-08-21T07:44:30;10.50;;;4.90;;
16820;SDS011;8527;49.740;6.604;2022-08-21T07:49:32;14.73;;;5.40;;
16820;SDS011;8527;49.740;6.604;2022-08-21T07:54:30;11.23;;;5.00;;
16820;SDS011;8527;49.740;6.604;2022-08-21T07:59:28;11.20;;;4.40;;
16820;SDS011;8527;49.740;6.604;2022-08-21T08:04:27;10.07;;;4.45;;
16820;SDS011;8527;49.740;6.604;2022-08-21T08:09:28;16.33;;;4.72;;
16820;SDS011;8527;49.740;6.604;2022-08-21T08:14:26;11.15;;;4.55;;
16820;SDS011;8527;49.740;6.604;2022-08-21T08:19:30;9.05;;;4.63;;
16820;SDS011;8527;49.740;6.604;2022-08-21T08:24:31;11.68;;;4.50;;
16820;SDS011;8527;49.740;6.604;2022-08-21T08:29:30;9.98;;;4.53;;
16820;SDS011;8527;49.740;6.604;2022-08-21T08:34:28;11.20;;;4.50;;
16820;SDS011;8527;49.740;6.604;2022-08-21T08:39:33;10.20;;;4.35;;
16820;SDS011;8527;49.740;6.604;2022-08-21T08:44:31;13.95;;;4.68;;
16820;SDS011;8527;49.740;6.604;2022-08-21T08:49:31;12.05;;;4.60;;
16820;SDS011;8527;49.740;6.604;2022-08-21T08:54:38;11.68;;;4.68;;
16820;SDS011;8527;49.740;6.604;2022-08-21T08:59:50;17.83;;;5.03;;
16820;SDS011;8527;49.740;6.604;2022-08-21T09:04:50;10.30;;;4.32;;
16820;SDS011;8527;49.740;6.604;2022-08-21T09:09:55;14.38;;;4.20;;
16820;SDS011;8527;49.740;6.604;2022-08-21T09:15:06;12.73;;;4.20;;
16820;SDS011;8527;49.740;6.604;2022-08-21T09:20:22;8.57;;;3.25;;
16820;SDS011;8527;49.740;6.604;2022-08-21T09:25:42;13.57;;;4.07;;
16820;SDS011;8527;49.740;6.604;2022-08-21T09:30:54;9.35;;;3.28;;
16820;SDS011;8527;49.740;6.604;2022-08-21T09:35:57;11.63;;;3.50;;
16820;SDS011;8527;49.740;6.604;2022-08-21T09:41:00;11.13;;;3.60;;
16820;SDS011;8527;49.740;6.604;2022-08-21T09:46:07;10.07;;;3.30;;
16820;SDS011;8527;49.740;6.604;2022-08-21T09:51:08;11.32;;;3.33;;
16820;SDS011;8527;49.740;6.604;2022-08-21T09:56:18;11.50;;;3.20;;
16820;SDS011;8527;49.740;6.604;2022-08-21T10:01:41;11.18;;;3.78;;
16820;SDS011;8527;49.740;6.604;2022-08-21T10:06:41;10.55;;;3.20;;
16820;SDS011;8527;49.740;6.604;2022-08-21T10:11:43;10.82;;;3.28;;
16820;SDS011;8527;49.740;6.604;2022-08-21T10:16:52;9.88;;;3.20;;
16820;SDS011;8527;49.740;6.604;2022-08-21T10:22:01;11.00;;;3.30;;
16820;SDS011;8527;49.740;6.604;2022-08-21T10:27:14;9.98;;;3.53;;
16820;SDS011;8527;49.740;6.604;2022-08-21T10:32:24;13.68;;;4.03;;
16820;SDS011;8527;49.740;6.604;2022-08-21T10:37:39;7.47;;;3.28;;
16820;SDS011;8527;49.740;6.604;2022-08-21T10:43:01;9.77;;;3.10;;
16820;SDS011;8527;49.740;6.604;2022-08-21T10:48:12;10.02;;;3.53;;
16820;SDS011;8527;49.740;6.604;2022-08-21T10:53:36;14.07;;;3.42;;
16820;SDS011;8527;49.740;6.604;2022-08-21T10:59:11;14.32;;;3.58;;
16820;SDS011;8527;49.740;6.604;2022-08-21T11:04:28;10.93;;;3.60;;
16820;SDS011;8527;49.740;6.604;2022-08-21T11:09:31;11.90;;;3.30;;
16820;SDS011;8527;49.740;6.604;2022-08-21T11:14:39;7.05;;;2.83;;
16820;SDS011;8527;49.740;6.604;2022-08-21T11:19:53;14.43;;;3.50;;
16820;SDS011;8527;49.740;6.604;2022-08-21T11:24:58;14.48;;;3.70;;
16820;SDS011;8527;49.740;6.604;2022-08-21T11:30:03;11.95;;;3.20;;
16820;SDS011;8527;49.740;6.604;2022-08-21T11:35:06;12.30;;;3.33;;
16820;SDS011;8527;49.740;6.604;2022-08-21T11:40:19;8.60;;;2.90;;
16820;SDS011;8527;49.740;6.604;2022-08-21T11:45:37;10.52;;;3.28;;
16820;SDS011;8527;49.740;6.604;2022-08-21T11:50:43;12.43;;;3.45;;
16820;SDS011;8527;49.740;6.604;2022-08-21T11:55:44;11.98;;;3.25;;
16820;SDS011;8527;49.740;6.604;2022-08-21T12:00:49;8.95;;;3.00;;
16820;SDS011;8527;49.740;6.604;2022-08-21T12:05:52;12.82;;;3.53;;
16820;SDS011;8527;49.740;6.604;2022-08-21T12:10:59;9.85;;;3.20;;
16820;SDS011;8527;49.740;6.604;2022-08-21T12:16:12;12.87;;;3.37;;
16820;SDS011;8527;49.740;6.604;2022-08-21T12:21:23;11.75;;;3.08;;
16820;SDS011;8527;49.740;6.604;2022-08-21T12:26:27;12.50;;;3.33;;
16820;SDS011;8527;49.740;6.604;2022-08-21T12:31:32;9.95;;;2.90;;
16820;SDS011;8527;49.740;6.604;2022-08-21T12:36:48;9.95;;;3.40;;
16820;SDS011;8527;49.740;6.604;2022-08-21T12:41:55;7.30;;;2.72;;
16820;SDS011;8527;49.740;6.604;2022-08-21T12:46:59;8.32;;;2.80;;
16820;SDS011;8527;49.740;6.604;2022-08-21T12:52:16;14.85;;;3.50;;
16820;SDS011;8527;49.740;6.604;2022-08-21T12:57:23;11.40;;;2.90;;
16820;SDS011;8527;49.740;6.604;2022-08-21T13:02:27;12.35;;;3.50;;
16820;SDS011;8527;49.740;6.604;2022-08-21T13:07:31;13.60;;;3.15;;
16820;SDS011;8527;49.740;6.604;2022-08-21T13:12:36;15.18;;;3.40;;
16820;SDS011;8527;49.740;6.604;2022-08-21T13:17:48;8.02;;;2.92;;
16820;SDS011;8527;49.740;6.604;2022-08-21T13:22:56;9.50;;;2.95;;
16820;SDS011;8527;49.740;6.604;2022-08-21T13:27:57;10.32;;;3.10;;
16820;SDS011;8527;49.740;6.604;2022-08-21T13:33:04;13.93;;;3.15;;
16820;SDS011;8527;49.740;6.604;2022-08-21T13:38:05;10.57;;;3.15;;
16820;SDS011;8527;49.740;6.604;2022-08-21T13:43:18;9.60;;;2.95;;
16820;SDS011;8527;49.740;6.604;2022-08-21T13:48:26;8.52;;;3.47;;
16820;SDS011;8527;49.740;6.604;2022-08-21T13:53:33;11.20;;;3.03;;
16820;SDS011;8527;49.740;6.604;2022-08-21T13:58:48;9.88;;;3.08;;
16820;SDS011;8527;49.740;6.604;2022-08-21T14:04:02;6.00;;;2.70;;
16820;SDS011;8527;49.740;6.604;2022-08-21T14:09:10;10.23;;;2.95;;
16820;SDS011;8527;49.740;6.604;2022-08-21T14:14:16;7.78;;;2.70;;
16820;SDS011;8527;49.740;6.604;2022-08-21T14:19:25;12.18;;;3.05;;
16820;SDS011;8527;49.740;6.604;2022-08-21T14:24:25;9.05;;;2.90;;
16820;SDS011;8527;49.740;6.604;2022-08-21T14:29:32;8.43;;;2.78;;
16820;SDS011;8527;49.740;6.604;2022-08-21T14:34:38;10.60;;;2.90;;
16820;SDS011;8527;49.740;6.604;2022-08-21T14:39:46;9.50;;;2.80;;
16820;SDS011;8527;49.740;6.604;2022-08-21T14:44:51;9.18;;;2.90;;
16820;SDS011;8527;49.740;6.604;2022-08-21T14:49:58;6.72;;;2.65;;
16820;SDS011;8527;49.740;6.604;2022-08-21T14:55:00;8.73;;;3.30;;
16820;SDS011;8527;49.740;6.604;2022-08-21T15:00:07;7.13;;;2.63;;
16820;SDS011;8527;49.740;6.604;2022-08-21T15:05:10;6.50;;;2.40;;
16820;SDS011;8527;49.740;6.604;2022-08-21T15:10:12;8.33;;;2.77;;
16820;SDS011;8527;49.740;6.604;2022-08-21T15:15:12;5.90;;;2.33;;
16820;SDS011;8527;49.740;6.604;2022-08-21T15:20:15;8.18;;;2.90;;
16820;SDS011;8527;49.740;6.604;2022-08-21T15:25:14;8.80;;;2.35;;
16820;SDS011;8527;49.740;6.604;2022-08-21T15:30:12;8.65;;;2.90;;
16820;SDS011;8527;49.740;6.604;2022-08-21T15:35:13;8.20;;;2.50;;
16820;SDS011;8527;49.740;6.604;2022-08-21T15:40:17;6.63;;;2.63;;
16820;SDS011;8527;49.740;6.604;2022-08-21T15:45:16;8.55;;;2.90;;
16820;SDS011;8527;49.740;6.604;2022-08-21T15:50:15;4.65;;;2.38;;
16820;SDS011;8527;49.740;6.604;2022-08-21T15:55:20;5.75;;;2.83;;
16820;SDS011;8527;49.740;6.604;2022-08-21T16:00:19;4.43;;;2.35;;
16820;SDS011;8527;49.740;6.604;2022-08-21T16:05:21;5.43;;;2.47;;
16820;SDS011;8527;49.740;6.604;2022-08-21T16:10:22;8.40;;;2.60;;
16820;SDS011;8527;49.740;6.604;2022-08-21T16:15:24;7.03;;;2.72;;
16820;SDS011;8527;49.740;6.604;2022-08-21T16:20:27;7.63;;;2.60;;
16820;SDS011;8527;49.740;6.604;2022-08-21T16:25:29;9.07;;;2.80;;
16820;SDS011;8527;49.740;6.604;2022-08-21T16:30:28;8.65;;;2.63;;
16820;SDS011;8527;49.740;6.604;2022-08-21T16:35:29;5.03;;;2.60;;
16820;SDS011;8527;49.740;6.604;2022-08-21T16:40:30;7.15;;;2.50;;
16820;SDS011;8527;49.740;6.604;2022-08-21T16:45:40;9.40;;;2.55;;
16820;SDS011;8527;49.740;6.604;2022-08-21T16:50:42;7.60;;;2.70;;
16820;SDS011;8527;49.740;6.604;2022-08-21T16:55:46;7.55;;;2.70;;
16820;SDS011;8527;49.740;6.604;2022-08-21T17:00:47;8.52;;;2.63;;
16820;SDS011;8527;49.740;6.604;2022-08-21T17:05:45;8.43;;;2.53;;
16820;SDS011;8527;49.740;6.604;2022-08-21T17:10:50;7.53;;;2.90;;
16820;SDS011;8527;49.740;6.604;2022-08-21T17:15:50;5.10;;;2.45;;
16820;SDS011;8527;49.740;6.604;2022-08-21T17:20:54;7.35;;;3.00;;
16820;SDS011;8527;49.740;6.604;2022-08-21T17:25:55;7.03;;;2.58;;
16820;SDS011;8527;49.740;6.604;2022-08-21T17:30:54;10.90;;;2.33;;
16820;SDS011;8527;49.740;6.604;2022-08-21T17:35:56;6.80;;;2.80;;
16820;SDS011;8527;49.740;6.604;2022-08-21T17:40:58;5.60;;;2.90;;
16820;SDS011;8527;49.740;6.604;2022-08-21T17:46:00;10.13;;;2.80;;
16820;SDS011;8527;49.740;6.604;2022-08-21T17:50:59;7.65;;;2.83;;
16820;SDS011;8527;49.740;6.604;2022-08-21T17:56:00;13.10;;;2.80;;
16820;SDS011;8527;49.740;6.604;2022-08-21T18:01:01;10.50;;;2.83;;
16820;SDS011;8527;49.740;6.604;2022-08-21T18:06:01;6.10;;;2.58;;
16820;SDS011;8527;49.740;6.604;2022-08-21T18:11:04;9.02;;;2.95;;
16820;SDS011;8527;49.740;6.604;2022-08-21T18:16:03;6.07;;;2.50;;
16820;SDS011;8527;49.740;6.604;2022-08-21T18:21:08;6.63;;;2.63;;
16820;SDS011;8527;49.740;6.604;2022-08-21T18:26:09;4.65;;;2.40;;
16820;SDS011;8527;49.740;6.604;2022-08-21T18:31:22;5.97;;;2.73;;
16820;SDS011;8527;49.740;6.604;2022-08-21T18:36:24;6.70;;;2.80;;
16820;SDS011;8527;49.740;6.604;2022-08-21T18:41:28;6.18;;;2.40;;
16820;SDS011;8527;49.740;6.604;2022-08-21T18:46:26;8.75;;;2.90;;
16820;SDS011;8527;49.740;6.604;2022-08-21T18:51:25;7.63;;;2.67;;
16820;SDS011;8527;49.740;6.604;2022-08-21T18:56:29;5.93;;;2.45;;
16820;SDS011;8527;49.740;6.604;2022-08-21T19:01:31;6.13;;;2.53;;
16820;SDS011;8527;49.740;6.604;2022-08-21T19:06:30;4.00;;;2.30;;
16820;SDS011;8527;49.740;6.604;2022-08-21T19:11:38;6.60;;;2.70;;
16820;SDS011;8527;49.740;6.604;2022-08-21T19:16:41;5.57;;;2.53;;
16820;SDS011;8527;49.740;6.604;2022-08-21T19:21:42;10.43;;;2.55;;
16820;SDS011;8527;49.740;6.604;2022-08-21T19:26:44;6.95;;;2.30;;
16820;SDS011;8527;49.740;6.604;2022-08-21T19:31:42;7.63;;;2.70;;
16820;SDS011;8527;49.740;6.604;2022-08-21T19:36:42;9.20;;;2.75;;
16820;SDS011;8527;49.740;6.604;2022-08-21T19:41:41;8.35;;;2.40;;
16820;SDS011;8527;49.740;6.604;2022-08-21T19:46:45;6.15;;;2.42;;
16820;SDS011;8527;49.740;6.604;2022-08-21T19:51:49;6.13;;;2.28;;
16820;SDS011;8527;49.740;6.604;2022-08-21T19:56:50;9.35;;;2.60;;
16820;SDS011;8527;49.740;6.604;2022-08-21T20:01:49;10.35;;;2.90;;
16820;SDS011;8527;49.740;6.604;2022-08-21T20:06:51;8.80;;;2.80;;
16820;SDS011;8527;49.740;6.604;2022-08-21T20:11:56;6.28;;;2.70;;
16820;SDS011;8527;49.740;6.604;2022-08-21T20:16:59;5.77;;;2.47;;
16820;SDS011;8527;49.740;6.604;2022-08-21T20:22:02;6.65;;;2.67;;
16820;SDS011;8527;49.740;6.604;2022-08-21T20:27:04;8.68;;;2.33;;
16820;SDS011;8527;49.740;6.604;2022-08-21T20:32:12;6.82;;;2.30;;
16820;SDS011;8527;49.740;6.604;2022-08-21T20:37:10;12.23;;;2.97;;
16820;SDS011;8527;49.740;6.604;2022-08-21T20:42:15;8.48;;;2.50;;
16820;SDS011;8527;49.740;6.604;2022-08-21T20:47:13;7.97;;;2.40;;
16820;SDS011;8527;49.740;6.604;2022-08-21T20:52:14;7.68;;;2.30;;
16820;SDS011;8527;49.740;6.604;2022-08-21T20:57:21;10.38;;;2.45;;
16820;SDS011;8527;49.740;6.604;2022-08-21T21:02:32;7.20;;;2.53;;
16820;SDS011;8527;49.740;6.604;2022-08-21T21:07:42;4.57;;;2.40;;
16820;SDS011;8527;49.740;6.604;2022-08-21T21:12:54;6.55;;;2.60;;
16820;SDS011;8527;49.740;6.604;2022-08-21T21:18:01;6.97;;;2.50;;
16820;SDS011;8527;49.740;6.604;2022-08-21T21:23:09;6.90;;;2.53;;
16820;SDS011;8527;49.740;6.604;2022-08-21T21:28:16;7.07;;;2.20;;
16820;SDS011;8527;49.740;6.604;2022-08-21T21:33:23;6.20;;;2.22;;
16820;SDS011;8527;49.740;6.604;2022-08-21T21:38:26;6.57;;;2.28;;
16820;SDS011;8527;49.740;6.604;2022-08-21T21:49:07;4.75;;;2.30;;
16820;SDS011;8527;49.740;6.604;2022-08-21T21:54:21;8.10;;;2.25;;
16820;SDS011;8527;49.740;6.604;2022-08-21T21:59:39;9.32;;;2.35;;
16820;SDS011;8527;49.740;6.604;2022-08-21T22:05:05;7.75;;;2.35;;
16820;SDS011;8527;49.740;6.604;2022-08-21T22:10:14;6.43;;;2.50;;
16820;SDS011;8527;49.740;6.604;2022-08-21T22:15:20;10.15;;;2.47;;
16820;SDS011;8527;49.740;6.604;2022-08-21T22:20:22;6.35;;;2.30;;
16820;SDS011;8527;49.740;6.604;2022-08-21T22:25:32;9.48;;;2.60;;
16820;SDS011;8527;49.740;6.604;2022-08-21T22:30:41;10.45;;;2.45;;
16820;SDS011;8527;49.740;6.604;2022-08-21T22:35:42;7.15;;;2.47;;
16820;SDS011;8527;49.740;6.604;2022-08-21T22:40:44;8.63;;;2.30;;
16820;SDS011;8527;49.740;6.604;2022-08-21T22:45:55;10.23;;;2.42;;
16820;SDS011;8527;49.740;6.604;2022-08-21T22:50:57;6.00;;;2.53;;
16820;SDS011;8527;49.740;6.604;2022-08-21T22:56:06;10.68;;;2.63;;
16820;SDS011;8527;49.740;6.604;2022-08-21T23:01:11;6.10;;;2.15;;
16820;SDS011;8527;49.740;6.604;2022-08-21T23:06:21;7.03;;;2.20;;
16820;SDS011;8527;49.740;6.604;2022-08-21T23:11:23;9.00;;;2.33;;
16820;SDS011;8527;49.740;6.604;2022-08-21T23:16:32;9.48;;;2.50;;
16820;SDS011;8527;49.740;6.604;2022-08-21T23:21:48;5.53;;;2.40;;
16820;SDS011;8527;49.740;6.604;2022-08-21T23:27:01;6.47;;;2.00;;
16820;SDS011;8527;49.740;6.604;2022-08-21T23:32:16;8.90;;;2.15;;
16820;SDS011;8527;49.740;6.604;2022-08-21T23:37:33;5.68;;;2.03;;
16820;SDS011;8527;49.740;6.604;2022-08-21T23:42:51;9.88;;;2.33;;
16820;SDS011;8527;49.740;6.604;2022-08-21T23:48:06;8.88;;;2.47;;
16820;SDS011;8527;49.740;6.604;2022-08-21T23:53:24;6.68;;;2.20;;
16820;SDS011;8527;49.740;6.604;2022-08-21T23:58:39;8.05;;;2.13;;
